Cedar Island, NC

3:21 PM EST on December 08, 2016 (GMT -0500)
Wards Creek | | Change Station

Elev 10 ft 34.79 °N, 76.56 °W | Updated 9 seconds ago

Overcast
Overcast
55.9 °F
Feels Like 55.9 °F
N
8.6
Wind Variable Wind from NW
Gusts 8.6 mph

Today
High -- | Low -- °F
--% Chance of Precip.
Yesterday
High -- | Low -- °F
Precip. -- in
Pressure 30.03 in
Visibility 6.0 miles
Clouds Few 2000 ft
Scattered Clouds 2700 ft
Overcast 4400 ft
Dew Point 50 °F
Humidity 82%
Rainfall 0.00 in
Snow Depth Not available.
7:01 AM 4:53 PM
Waxing Gibbous, 66% visible
SPECI KMRH 082009Z AUTO 33011KT 6SM HZ FEW020 SCT027 OVC044 14/10 A3003 RMK AO2 T01390100 TSNO $
Pressure 30.03 in
Visibility 6.0 miles
Clouds Few 2000 ft
Scattered Clouds 2700 ft
Overcast 4400 ft
Dew Point 50 °F
Humidity 82%
Rainfall 0.00 in
Snow Depth Not available.
7:01 AM 4:53 PM
Waxing Gibbous, 66% visible
SPECI KMRH 082009Z AUTO 33011KT 6SM HZ FEW020 SCT027 OVC044 14/10 A3003 RMK AO2 T01390100 TSNO $

10-Day Weather Forecast

Almanac

Astronomy

Dec. 08, 2016 Rise Set
Actual Time
Civil Twilight
Nautical Twilight
Astronomical Twilight
Moon
Length of Visible Light
Length of Day
Tomorrow will be .
, % of the Moon is Illuminated

Today's Extremes

State Highs State Lows

Community

WunderPhotos

Upload Photos

1,956,277 photos uploaded!

WunderBlog® & News

Nearby

Air Quality

  Air Quality AQ Index Pollutant
Not available.

Snow Depth

Station Depth Elevation

Earthquake Activity

City Distance Mag. Time & Date
Minimum magnitude displayed is 2.5.

Coastal Water Temperatures

Place Temperature

Stations

Nearby Weather Stations

Station Location Temp. Windchill Dew Point Humidity Wind Precip. Elev Updated Type
                   

Watches & Warnings

There are currently no watches in effect.